sensor_id;sensor_type;location;lat;lon;timestamp;pressure;altitude;pressure_sealevel;temperature;humidity
26043;BME280;13818;52.156;5.382;2022-10-16T00:00:20;100677.13;;;13.38;100.00
26043;BME280;13818;52.156;5.382;2022-10-16T00:02:46;100678.50;;;13.29;100.00
26043;BME280;13818;52.156;5.382;2022-10-16T00:05:13;100660.63;;;13.29;100.00
26043;BME280;13818;52.156;5.382;2022-10-16T00:07:40;100672.75;;;13.21;100.00
26043;BME280;13818;52.156;5.382;2022-10-16T00:10:07;100674.19;;;13.26;100.00
26043;BME280;13818;52.156;5.382;2022-10-16T00:12:34;100681.19;;;13.29;100.00
26043;BME280;13818;52.156;5.382;2022-10-16T00:15:00;100675.44;;;13.35;100.00
26043;BME280;13818;52.156;5.382;2022-10-16T00:17:27;100671.78;;;13.38;100.00
26043;BME280;13818;52.156;5.382;2022-10-16T00:19:53;100679.94;;;13.34;100.00
26043;BME280;13818;52.156;5.382;2022-10-16T00:22:20;100693.09;;;13.39;100.00
26043;BME280;13818;52.156;5.382;2022-10-16T00:24:48;100689.38;;;13.42;100.00
26043;BME280;13818;52.156;5.382;2022-10-16T00:27:14;100684.34;;;13.35;100.00
26043;BME280;13818;52.156;5.382;2022-10-16T00:29:41;100692.97;;;13.41;100.00
26043;BME280;13818;52.156;5.382;2022-10-16T00:32:08;100686.38;;;13.46;100.00
26043;BME280;13818;52.156;5.382;2022-10-16T00:34:35;100680.28;;;13.44;100.00
26043;BME280;13818;52.156;5.382;2022-10-16T00:37:02;100672.25;;;13.44;100.00
26043;BME280;13818;52.156;5.382;2022-10-16T00:39:29;100671.06;;;13.34;100.00
26043;BME280;13818;52.156;5.382;2022-10-16T00:41:56;100675.44;;;13.35;100.00
26043;BME280;13818;52.156;5.382;2022-10-16T00:44:45;100668.56;;;13.31;100.00
26043;BME280;13818;52.156;5.382;2022-10-16T00:47:17;100674.25;;;13.41;100.00
26043;BME280;13818;52.156;5.382;2022-10-16T00:49:46;100677.59;;;13.44;100.00
26043;BME280;13818;52.156;5.382;2022-10-16T00:52:14;100676.72;;;13.44;100.00
26043;BME280;13818;52.156;5.382;2022-10-16T00:54:41;100670.25;;;13.48;100.00
26043;BME280;13818;52.156;5.382;2022-10-16T00:57:09;100675.59;;;13.48;100.00
26043;BME280;13818;52.156;5.382;2022-10-16T00:59:38;100684.31;;;13.52;100.00
26043;BME280;13818;52.156;5.382;2022-10-16T01:02:06;100679.13;;;13.48;100.00
26043;BME280;13818;52.156;5.382;2022-10-16T01:04:35;100684.50;;;13.48;100.00
26043;BME280;13818;52.156;5.382;2022-10-16T01:07:06;100684.22;;;13.53;100.00
26043;BME280;13818;52.156;5.382;2022-10-16T01:09:45;100690.53;;;13.52;100.00
26043;BME280;13818;52.156;5.382;2022-10-16T01:12:16;100691.94;;;13.58;100.00
26043;BME280;13818;52.156;5.382;2022-10-16T01:14:53;100698.34;;;13.55;100.00
26043;BME280;13818;52.156;5.382;2022-10-16T01:17:24;100682.97;;;13.59;100.00
26043;BME280;13818;52.156;5.382;2022-10-16T01:20:02;100691.66;;;13.62;100.00
26043;BME280;13818;52.156;5.382;2022-10-16T01:22:38;100685.47;;;13.62;100.00
26043;BME280;13818;52.156;5.382;2022-10-16T01:25:09;100681.06;;;13.61;100.00
26043;BME280;13818;52.156;5.382;2022-10-16T01:27:40;100686.22;;;13.64;100.00
26043;BME280;13818;52.156;5.382;2022-10-16T01:30:10;100694.19;;;13.65;100.00
26043;BME280;13818;52.156;5.382;2022-10-16T01:32:41;100696.66;;;13.69;100.00
26043;BME280;13818;52.156;5.382;2022-10-16T01:35:14;100695.88;;;13.66;100.00
26043;BME280;13818;52.156;5.382;2022-10-16T01:37:46;100693.03;;;13.70;100.00
26043;BME280;13818;52.156;5.382;2022-10-16T01:40:16;100685.09;;;13.68;100.00
26043;BME280;13818;52.156;5.382;2022-10-16T01:42:48;100692.25;;;13.67;100.00
26043;BME280;13818;52.156;5.382;2022-10-16T01:45:17;100698.38;;;13.70;100.00
26043;BME280;13818;52.156;5.382;2022-10-16T01:47:46;100691.41;;;13.67;100.00
26043;BME280;13818;52.156;5.382;2022-10-16T01:50:15;100697.59;;;13.67;100.00
26043;BME280;13818;52.156;5.382;2022-10-16T01:52:45;100690.25;;;13.71;100.00
26043;BME280;13818;52.156;5.382;2022-10-16T01:55:16;100687.41;;;13.74;100.00
26043;BME280;13818;52.156;5.382;2022-10-16T01:57:47;100668.53;;;13.76;100.00
26043;BME280;13818;52.156;5.382;2022-10-16T02:00:17;100660.31;;;13.64;100.00
26043;BME280;13818;52.156;5.382;2022-10-16T02:02:49;100666.03;;;13.58;100.00
26043;BME280;13818;52.156;5.382;2022-10-16T02:05:21;100663.47;;;13.57;100.00
26043;BME280;13818;52.156;5.382;2022-10-16T02:07:49;100668.03;;;13.55;100.00
26043;BME280;13818;52.156;5.382;2022-10-16T02:10:16;100670.63;;;13.56;100.00
26043;BME280;13818;52.156;5.382;2022-10-16T02:12:49;100669.41;;;13.62;100.00
26043;BME280;13818;52.156;5.382;2022-10-16T02:15:17;100677.22;;;13.65;100.00
26043;BME280;13818;52.156;5.382;2022-10-16T02:17:43;100681.53;;;13.67;100.00
26043;BME280;13818;52.156;5.382;2022-10-16T02:20:10;100678.97;;;13.66;100.00
26043;BME280;13818;52.156;5.382;2022-10-16T02:22:39;100680.13;;;13.62;100.00
26043;BME280;13818;52.156;5.382;2022-10-16T02:25:07;100686.72;;;13.71;100.00
26043;BME280;13818;52.156;5.382;2022-10-16T02:27:40;100686.78;;;13.69;100.00
26043;BME280;13818;52.156;5.382;2022-10-16T02:30:13;100685.16;;;13.66;100.00
26043;BME280;13818;52.156;5.382;2022-10-16T02:32:43;100681.06;;;13.61;100.00
26043;BME280;13818;52.156;5.382;2022-10-16T02:35:12;100682.97;;;13.59;100.00
26043;BME280;13818;52.156;5.382;2022-10-16T02:37:40;100689.09;;;13.61;100.00
26043;BME280;13818;52.156;5.382;2022-10-16T02:40:08;100698.28;;;13.57;100.00
26043;BME280;13818;52.156;5.382;2022-10-16T02:42:37;100694.72;;;13.56;100.00
26043;BME280;13818;52.156;5.382;2022-10-16T02:45:04;100695.88;;;13.52;100.00
26043;BME280;13818;52.156;5.382;2022-10-16T02:47:32;100709.16;;;13.54;100.00
26043;BME280;13818;52.156;5.382;2022-10-16T02:49:59;100710.03;;;13.54;100.00
26043;BME280;13818;52.156;5.382;2022-10-16T02:52:25;100711.94;;;13.52;100.00
26043;BME280;13818;52.156;5.382;2022-10-16T02:54:52;100709.47;;;13.49;100.00
26043;BME280;13818;52.156;5.382;2022-10-16T02:57:18;100707.53;;;13.51;100.00
26043;BME280;13818;52.156;5.382;2022-10-16T02:59:45;100710.22;;;13.51;100.00
26043;BME280;13818;52.156;5.382;2022-10-16T03:02:12;100704.75;;;13.53;100.00
26043;BME280;13818;52.156;5.382;2022-10-16T03:04:40;100713.00;;;13.49;100.00
26043;BME280;13818;52.156;5.382;2022-10-16T03:07:06;100710.31;;;13.49;100.00
26043;BME280;13818;52.156;5.382;2022-10-16T03:09:33;100708.59;;;13.48;100.00
26043;BME280;13818;52.156;5.382;2022-10-16T03:12:00;100705.44;;;13.42;100.00
26043;BME280;13818;52.156;5.382;2022-10-16T03:14:26;100703.44;;;13.45;100.00
26043;BME280;13818;52.156;5.382;2022-10-16T03:16:53;100686.38;;;13.46;100.00
26043;BME280;13818;52.156;5.382;2022-10-16T03:19:19;100693.28;;;13.50;100.00
26043;BME280;13818;52.156;5.382;2022-10-16T03:21:47;100693.84;;;13.41;100.00
26043;BME280;13818;52.156;5.382;2022-10-16T03:24:13;100690.88;;;13.46;100.00
26043;BME280;13818;52.156;5.382;2022-10-16T03:26:40;100693.84;;;13.41;100.00
26043;BME280;13818;52.156;5.382;2022-10-16T03:29:06;100704.47;;;13.43;100.00
26043;BME280;13818;52.156;5.382;2022-10-16T03:31:33;100710.69;;;13.43;100.00
26043;BME280;13818;52.156;5.382;2022-10-16T03:34:00;100716.22;;;13.40;100.00
26043;BME280;13818;52.156;5.382;2022-10-16T03:36:26;100720.88;;;13.37;100.00
26043;BME280;13818;52.156;5.382;2022-10-16T03:38:54;100708.81;;;13.29;100.00
26043;BME280;13818;52.156;5.382;2022-10-16T03:41:20;100702.41;;;13.32;100.00
26043;BME280;13818;52.156;5.382;2022-10-16T03:43:47;100711.38;;;13.31;100.00
26043;BME280;13818;52.156;5.382;2022-10-16T03:46:13;100719.50;;;13.29;100.00
26043;BME280;13818;52.156;5.382;2022-10-16T03:48:40;100726.38;;;13.33;100.00
26043;BME280;13818;52.156;5.382;2022-10-16T03:51:06;100717.69;;;13.30;100.00
26043;BME280;13818;52.156;5.382;2022-10-16T03:53:33;100726.38;;;13.33;100.00
26043;BME280;13818;52.156;5.382;2022-10-16T03:56:01;100724.66;;;13.32;100.00
26043;BME280;13818;52.156;5.382;2022-10-16T03:58:27;100733.34;;;13.22;100.00
26043;BME280;13818;52.156;5.382;2022-10-16T04:00:54;100727.78;;;13.25;100.00
26043;BME280;13818;52.156;5.382;2022-10-16T04:03:21;100731.41;;;13.24;100.00
26043;BME280;13818;52.156;5.382;2022-10-16T04:05:48;100737.75;;;13.23;100.00
26043;BME280;13818;52.156;5.382;2022-10-16T04:08:15;100741.53;;;13.18;100.00
26043;BME280;13818;52.156;5.382;2022-10-16T04:10:42;100744.81;;;13.24;100.00
26043;BME280;13818;52.156;5.382;2022-10-16T04:13:10;100742.31;;;13.21;100.00
26043;BME280;13818;52.156;5.382;2022-10-16T04:15:36;100746.88;;;13.18;100.00
26043;BME280;13818;52.156;5.382;2022-10-16T04:18:03;100744.06;;;13.22;100.00
26043;BME280;13818;52.156;5.382;2022-10-16T04:20:29;100753.03;;;13.21;100.00
26043;BME280;13818;52.156;5.382;2022-10-16T04:22:56;100750.94;;;13.26;100.00
26043;BME280;13818;52.156;5.382;2022-10-16T04:25:22;100756.50;;;13.23;100.00
26043;BME280;13818;52.156;5.382;2022-10-16T04:27:49;100760.97;;;13.22;100.00
26043;BME280;13818;52.156;5.382;2022-10-16T04:30:17;100772.44;;;13.24;100.00
26043;BME280;13818;52.156;5.382;2022-10-16T04:32:43;100773.41;;;13.23;100.00
26043;BME280;13818;52.156;5.382;2022-10-16T04:35:13;100774.97;;;13.11;100.00
26043;BME280;13818;52.156;5.382;2022-10-16T04:37:40;100778.59;;;13.10;100.00
26043;BME280;13818;52.156;5.382;2022-10-16T04:40:07;100778.41;;;13.13;100.00
26043;BME280;13818;52.156;5.382;2022-10-16T04:42:34;100778.59;;;13.10;100.00
26043;BME280;13818;52.156;5.382;2022-10-16T04:45:00;100774.97;;;13.11;100.00
26043;BME280;13818;52.156;5.382;2022-10-16T04:47:28;100783.06;;;13.10;100.00
26043;BME280;13818;52.156;5.382;2022-10-16T04:49:55;100787.78;;;13.06;100.00
26043;BME280;13818;52.156;5.382;2022-10-16T04:52:22;100790.00;;;13.14;100.00
26043;BME280;13818;52.156;5.382;2022-10-16T04:54:49;100797.06;;;13.15;100.00
26043;BME280;13818;52.156;5.382;2022-10-16T04:57:16;100799.91;;;13.12;100.00
26043;BME280;13818;52.156;5.382;2022-10-16T04:59:43;100804.22;;;13.14;100.00
26043;BME280;13818;52.156;5.382;2022-10-16T05:02:10;100803.53;;;13.11;100.00
26043;BME280;13818;52.156;5.382;2022-10-16T05:04:37;100802.69;;;13.10;100.00
26043;BME280;13818;52.156;5.382;2022-10-16T05:07:04;100801.81;;;13.10;100.00
26043;BME280;13818;52.156;5.382;2022-10-16T05:09:31;100805.88;;;13.01;100.00
26043;BME280;13818;52.156;5.382;2022-10-16T05:11:57;100815.53;;;13.03;100.00
26043;BME280;13818;52.156;5.382;2022-10-16T05:14:24;100818.22;;;13.03;100.00
26043;BME280;13818;52.156;5.382;2022-10-16T05:16:50;100830.75;;;13.03;100.00
26043;BME280;13818;52.156;5.382;2022-10-16T05:19:17;100829.28;;;12.97;100.00
26043;BME280;13818;52.156;5.382;2022-10-16T05:21:45;100831.97;;;12.97;100.00
26043;BME280;13818;52.156;5.382;2022-10-16T05:24:11;100837.31;;;12.97;100.00
26043;BME280;13818;52.156;5.382;2022-10-16T05:26:38;100842.91;;;12.93;100.00
26043;BME280;13818;52.156;5.382;2022-10-16T05:29:04;100842.91;;;12.93;100.00
26043;BME280;13818;52.156;5.382;2022-10-16T05:31:30;100837.72;;;12.90;100.00
26043;BME280;13818;52.156;5.382;2022-10-16T05:34:00;100844.91;;;12.89;100.00
26043;BME280;13818;52.156;5.382;2022-10-16T05:36:27;100850.06;;;12.92;100.00
26043;BME280;13818;52.156;5.382;2022-10-16T05:38:55;100862.59;;;12.92;100.00
26043;BME280;13818;52.156;5.382;2022-10-16T05:41:21;100855.69;;;12.88;100.00
26043;BME280;13818;52.156;5.382;2022-10-16T05:43:50;100865.44;;;12.89;100.00
26043;BME280;13818;52.156;5.382;2022-10-16T05:46:17;100870.00;;;12.86;100.00
26043;BME280;13818;52.156;5.382;2022-10-16T05:48:44;100870.78;;;12.89;100.00
26043;BME280;13818;52.156;5.382;2022-10-16T05:51:13;100883.38;;;12.86;100.00
26043;BME280;13818;52.156;5.382;2022-10-16T05:53:40;100886.84;;;12.89;100.00
26043;BME280;13818;52.156;5.382;2022-10-16T05:56:10;100902.81;;;12.90;100.00
26043;BME280;13818;52.156;5.382;2022-10-16T05:58:38;100905.47;;;12.90;100.00
26043;BME280;13818;52.156;5.382;2022-10-16T06:01:07;100908.91;;;12.92;100.00
26043;BME280;13818;52.156;5.382;2022-10-16T06:03:34;100904.34;;;12.94;100.00
26043;BME280;13818;52.156;5.382;2022-10-16T06:06:07;100908.16;;;12.90;100.00
26043;BME280;13818;52.156;5.382;2022-10-16T06:08:34;100905.38;;;12.92;100.00
26043;BME280;13818;52.156;5.382;2022-10-16T06:11:02;100912.38;;;12.94;100.00
26043;BME280;13818;52.156;5.382;2022-10-16T06:13:30;100923.69;;;12.99;100.00
26043;BME280;13818;52.156;5.382;2022-10-16T06:15:58;100920.06;;;13.00;100.00
26043;BME280;13818;52.156;5.382;2022-10-16T06:18:25;100925.50;;;12.99;100.00
26043;BME280;13818;52.156;5.382;2022-10-16T06:20:51;100922.66;;;13.02;100.00
26043;BME280;13818;52.156;5.382;2022-10-16T06:23:18;100922.56;;;13.03;100.00
26043;BME280;13818;52.156;5.382;2022-10-16T06:25:44;100942.00;;;13.07;100.00
26043;BME280;13818;52.156;5.382;2022-10-16T06:28:11;100941.84;;;13.10;100.00
26043;BME280;13818;52.156;5.382;2022-10-16T06:30:41;100945.38;;;13.11;100.00
26043;BME280;13818;52.156;5.382;2022-10-16T06:33:08;100951.50;;;13.13;100.00
26043;BME280;13818;52.156;5.382;2022-10-16T06:35:35;100941.50;;;13.16;100.00
26043;BME280;13818;52.156;5.382;2022-10-16T06:38:01;100936.47;;;13.10;100.00
26043;BME280;13818;52.156;5.382;2022-10-16T06:40:28;100940.00;;;13.11;100.00
26043;BME280;13818;52.156;5.382;2022-10-16T06:42:54;100948.91;;;13.11;100.00
26043;BME280;13818;52.156;5.382;2022-10-16T06:45:21;100945.38;;;13.11;100.00
26043;BME280;13818;52.156;5.382;2022-10-16T06:47:49;100946.41;;;13.08;100.00
26043;BME280;13818;52.156;5.382;2022-10-16T06:50:15;100945.47;;;13.09;100.00
26043;BME280;13818;52.156;5.382;2022-10-16T06:52:42;100944.50;;;13.10;100.00
26043;BME280;13818;52.156;5.382;2022-10-16T06:55:08;100962.22;;;13.13;100.00
26043;BME280;13818;52.156;5.382;2022-10-16T06:57:35;100948.59;;;13.17;100.00
26043;BME280;13818;52.156;5.382;2022-10-16T07:00:02;100953.84;;;13.19;100.00
26043;BME280;13818;52.156;5.382;2022-10-16T07:02:28;100953.31;;;13.12;100.00
26043;BME280;13818;52.156;5.382;2022-10-16T07:04:56;100958.66;;;13.12;100.00
26043;BME280;13818;52.156;5.382;2022-10-16T07:07:23;100963.94;;;13.14;100.00
26043;BME280;13818;52.156;5.382;2022-10-16T07:09:51;100958.50;;;13.15;100.00
26043;BME280;13818;52.156;5.382;2022-10-16T07:12:18;100974.03;;;13.25;100.00
26043;BME280;13818;52.156;5.382;2022-10-16T07:14:44;100993.22;;;13.33;100.00
26043;BME280;13818;52.156;5.382;2022-10-16T07:17:11;100996.38;;;13.41;100.00
26043;BME280;13818;52.156;5.382;2022-10-16T07:19:37;100998.28;;;13.39;100.00
26043;BME280;13818;52.156;5.382;2022-10-16T07:22:05;100989.47;;;13.37;100.00
26043;BME280;13818;52.156;5.382;2022-10-16T07:24:32;101005.63;;;13.52;100.00
26043;BME280;13818;52.156;5.382;2022-10-16T07:26:58;101006.56;;;13.50;100.00
26043;BME280;13818;52.156;5.382;2022-10-16T07:29:25;101010.72;;;13.56;100.00
26043;BME280;13818;52.156;5.382;2022-10-16T07:31:52;101015.03;;;13.59;100.00
26043;BME280;13818;52.156;5.382;2022-10-16T07:34:19;101019.88;;;13.68;100.00
26043;BME280;13818;52.156;5.382;2022-10-16T07:36:47;101020.41;;;13.75;100.00
26043;BME280;13818;52.156;5.382;2022-10-16T07:39:17;101030.84;;;13.79;100.00
26043;BME280;13818;52.156;5.382;2022-10-16T07:41:43;101031.56;;;13.83;100.00
26043;BME280;13818;52.156;5.382;2022-10-16T07:44:10;101025.75;;;13.91;100.00
26043;BME280;13818;52.156;5.382;2022-10-16T07:46:36;101038.13;;;13.93;100.00
26043;BME280;13818;52.156;5.382;2022-10-16T07:49:03;101055.03;;;13.94;100.00
26043;BME280;13818;52.156;5.382;2022-10-16T07:51:30;101052.88;;;14.00;100.00
26043;BME280;13818;52.156;5.382;2022-10-16T07:53:57;101070.59;;;14.03;100.00
26043;BME280;13818;52.156;5.382;2022-10-16T07:56:25;101073.09;;;14.06;100.00
26043;BME280;13818;52.156;5.382;2022-10-16T07:58:51;101075.78;;;14.22;100.00
26043;BME280;13818;52.156;5.382;2022-10-16T08:01:18;101078.75;;;14.32;100.00
26043;BME280;13818;52.156;5.382;2022-10-16T08:03:46;101070.94;;;14.43;100.00
26043;BME280;13818;52.156;5.382;2022-10-16T08:06:13;101068.13;;;14.61;100.00
26043;BME280;13818;52.156;5.382;2022-10-16T08:08:40;101073.00;;;14.70;100.00
26043;BME280;13818;52.156;5.382;2022-10-16T08:11:07;101071.50;;;14.80;100.00
26043;BME280;13818;52.156;5.382;2022-10-16T08:13:35;101081.38;;;14.94;100.00
26043;BME280;13818;52.156;5.382;2022-10-16T08:16:02;101083.28;;;14.92;100.00
26043;BME280;13818;52.156;5.382;2022-10-16T08:18:33;101078.22;;;15.02;100.00
26043;BME280;13818;52.156;5.382;2022-10-16T08:21:00;101090.63;;;15.19;100.00
26043;BME280;13818;52.156;5.382;2022-10-16T08:23:27;101088.22;;;15.15;100.00
26043;BME280;13818;52.156;5.382;2022-10-16T08:25:54;101097.81;;;15.19;100.00
26043;BME280;13818;52.156;5.382;2022-10-16T08:28:21;101087.84;;;15.21;100.00
26043;BME280;13818;52.156;5.382;2022-10-16T08:30:49;101100.53;;;15.33;100.00
26043;BME280;13818;52.156;5.382;2022-10-16T08:33:16;101102.22;;;15.34;100.00
26043;BME280;13818;52.156;5.382;2022-10-16T08:35:42;101107.88;;;15.44;100.00
26043;BME280;13818;52.156;5.382;2022-10-16T08:38:09;101101.66;;;15.58;100.00
26043;BME280;13818;52.156;5.382;2022-10-16T08:40:36;101109.41;;;15.62;100.00
26043;BME280;13818;52.156;5.382;2022-10-16T08:43:24;101113.63;;;15.81;100.00
26043;BME280;13818;52.156;5.382;2022-10-16T08:46:21;101122.19;;;15.88;100.00
26043;BME280;13818;52.156;5.382;2022-10-16T08:48:52;101128.59;;;15.71;100.00
26043;BME280;13818;52.156;5.382;2022-10-16T08:51:21;101137.16;;;15.77;100.00
26043;BME280;13818;52.156;5.382;2022-10-16T08:53:52;101135.84;;;15.85;100.00
26043;BME280;13818;52.156;5.382;2022-10-16T08:56:20;101141.84;;;15.88;100.00
26043;BME280;13818;52.156;5.382;2022-10-16T08:58:47;101146.16;;;16.05;100.00
26043;BME280;13818;52.156;5.382;2022-10-16T09:01:15;101142.03;;;16.00;100.00
26043;BME280;13818;52.156;5.382;2022-10-16T09:03:56;101147.50;;;15.98;100.00
26043;BME280;13818;52.156;5.382;2022-10-16T09:06:38;101144.25;;;16.07;100.00
26043;BME280;13818;52.156;5.382;2022-10-16T09:09:35;101146.91;;;16.22;100.00
26043;BME280;13818;52.156;5.382;2022-10-16T09:12:11;101157.25;;;16.28;100.00
26043;BME280;13818;52.156;5.382;2022-10-16T09:14:50;101158.78;;;16.32;100.00
26043;BME280;13818;52.156;5.382;2022-10-16T09:17:30;101163.97;;;16.35;100.00
26043;BME280;13818;52.156;5.382;2022-10-16T09:20:13;101162.63;;;16.28;100.00
26043;BME280;13818;52.156;5.382;2022-10-16T09:22:40;101178.78;;;16.28;100.00
26043;BME280;13818;52.156;5.382;2022-10-16T09:25:12;101172.94;;;16.49;100.00
26043;BME280;13818;52.156;5.382;2022-10-16T09:27:39;101162.69;;;16.68;100.00
26043;BME280;13818;52.156;5.382;2022-10-16T09:30:12;101181.63;;;16.67;100.00
26043;BME280;13818;52.156;5.382;2022-10-16T09:32:39;101184.56;;;16.76;100.00
26043;BME280;13818;52.156;5.382;2022-10-16T09:35:11;101183.84;;;16.60;100.00
26043;BME280;13818;52.156;5.382;2022-10-16T09:37:40;101187.16;;;17.05;100.00
26043;BME280;13818;52.156;5.382;2022-10-16T09:40:12;101177.91;;;17.10;100.00
26043;BME280;13818;52.156;5.382;2022-10-16T09:42:39;101198.94;;;16.90;100.00
26043;BME280;13818;52.156;5.382;2022-10-16T09:45:20;101199.22;;;17.00;100.00
26043;BME280;13818;52.156;5.382;2022-10-16T09:47:47;101194.06;;;16.82;100.00
26043;BME280;13818;52.156;5.382;2022-10-16T09:50:23;101206.75;;;16.80;100.00
26043;BME280;13818;52.156;5.382;2022-10-16T09:53:04;101190.06;;;17.02;100.00
26043;BME280;13818;52.156;5.382;2022-10-16T09:55:30;101197.53;;;17.24;100.00
26043;BME280;13818;52.156;5.382;2022-10-16T09:57:57;101197.09;;;17.31;100.00
26043;BME280;13818;52.156;5.382;2022-10-16T10:00:24;101204.63;;;17.26;100.00
26043;BME280;13818;52.156;5.382;2022-10-16T10:02:51;101200.56;;;17.46;100.00
26043;BME280;13818;52.156;5.382;2022-10-16T10:05:22;101206.72;;;17.35;100.00
26043;BME280;13818;52.156;5.382;2022-10-16T10:07:55;101206.84;;;17.59;100.00
26043;BME280;13818;52.156;5.382;2022-10-16T10:10:24;101204.25;;;17.70;100.00
26043;BME280;13818;52.156;5.382;2022-10-16T10:12:51;101212.66;;;17.66;100.00
26043;BME280;13818;52.156;5.382;2022-10-16T10:15:18;101210.81;;;17.66;100.00
26043;BME280;13818;52.156;5.382;2022-10-16T10:17:49;101198.28;;;17.91;100.00
26043;BME280;13818;52.156;5.382;2022-10-16T10:20:25;101204.13;;;17.85;100.00
26043;BME280;13818;52.156;5.382;2022-10-16T10:22:53;101206.81;;;18.11;100.00
26043;BME280;13818;52.156;5.382;2022-10-16T10:25:47;101207.56;;;18.13;100.00
26043;BME280;13818;52.156;5.382;2022-10-16T10:28:42;101212.84;;;18.01;100.00
26043;BME280;13818;52.156;5.382;2022-10-16T10:31:14;101224.41;;;18.03;100.00
26043;BME280;13818;52.156;5.382;2022-10-16T10:33:46;101231.31;;;17.95;100.00
26043;BME280;13818;52.156;5.382;2022-10-16T10:36:27;101229.25;;;18.11;100.00
26043;BME280;13818;52.156;5.382;2022-10-16T10:38:58;101237.69;;;17.94;100.00
26043;BME280;13818;52.156;5.382;2022-10-16T10:41:48;101241.09;;;17.70;100.00
26043;BME280;13818;52.156;5.382;2022-10-16T10:44:29;101244.22;;;18.15;100.00
26043;BME280;13818;52.156;5.382;2022-10-16T10:47:06;101247.09;;;18.38;100.00
26043;BME280;13818;52.156;5.382;2022-10-16T10:49:45;101235.56;;;18.36;100.00
26043;BME280;13818;52.156;5.382;2022-10-16T10:52:31;101248.63;;;18.42;100.00
26043;BME280;13818;52.156;5.382;2022-10-16T10:55:09;101247.25;;;18.24;100.00
26043;BME280;13818;52.156;5.382;2022-10-16T10:57:42;101252.09;;;18.31;100.00
26043;BME280;13818;52.156;5.382;2022-10-16T11:00:20;101249.06;;;18.36;100.00
26043;BME280;13818;52.156;5.382;2022-10-16T11:02:52;101257.44;;;18.57;100.00
26043;BME280;13818;52.156;5.382;2022-10-16T11:05:39;101258.34;;;18.45;100.00
26043;BME280;13818;52.156;5.382;2022-10-16T11:08:14;101257.56;;;18.43;100.00
26043;BME280;13818;52.156;5.382;2022-10-16T11:10:49;101267.84;;;18.37;100.00
26043;BME280;13818;52.156;5.382;2022-10-16T11:13:23;101264.72;;;18.31;100.00
26043;BME280;13818;52.156;5.382;2022-10-16T11:15:55;101273.16;;;18.26;100.00
26043;BME280;13818;52.156;5.382;2022-10-16T11:18:29;101272.91;;;18.29;100.00
26043;BME280;13818;52.156;5.382;2022-10-16T11:21:02;101271.06;;;18.43;100.00
26043;BME280;13818;52.156;5.382;2022-10-16T11:23:37;101268.59;;;18.27;100.00
26043;BME280;13818;52.156;5.382;2022-10-16T11:26:12;101267.00;;;18.24;100.00
26043;BME280;13818;52.156;5.382;2022-10-16T11:28:44;101280.03;;;18.30;100.00
26043;BME280;13818;52.156;5.382;2022-10-16T11:31:16;101282.28;;;18.36;100.00
26043;BME280;13818;52.156;5.382;2022-10-16T11:33:46;101276.91;;;18.36;100.00
26043;BME280;13818;52.156;5.382;2022-10-16T11:36:19;101278.41;;;18.41;100.00
26043;BME280;13818;52.156;5.382;2022-10-16T11:38:53;101279.41;;;18.27;100.00
26043;BME280;13818;52.156;5.382;2022-10-16T11:41:28;101293.63;;;18.54;100.00
26043;BME280;13818;52.156;5.382;2022-10-16T11:44:09;101283.53;;;18.57;100.00
26043;BME280;13818;52.156;5.382;2022-10-16T11:46:40;101288.19;;;18.67;100.00
26043;BME280;13818;52.156;5.382;2022-10-16T11:49:14;101288.81;;;18.58;100.00
26043;BME280;13818;52.156;5.382;2022-10-16T11:51:45;101289.03;;;18.31;100.00
26043;BME280;13818;52.156;5.382;2022-10-16T11:54:20;101295.16;;;18.33;100.00
26043;BME280;13818;52.156;5.382;2022-10-16T11:56:50;101286.09;;;18.34;100.00
26043;BME280;13818;52.156;5.382;2022-10-16T11:59:25;101290.19;;;18.40;100.00
26043;BME280;13818;52.156;5.382;2022-10-16T12:01:59;101290.47;;;18.48;100.00
26043;BME280;13818;52.156;5.382;2022-10-16T12:04:38;101304.75;;;18.50;100.00
26043;BME280;13818;52.156;5.382;2022-10-16T12:07:13;101293.84;;;18.38;100.00
26043;BME280;13818;52.156;5.382;2022-10-16T12:09:42;101302.25;;;18.47;98.57
26043;BME280;13818;52.156;5.382;2022-10-16T12:12:24;101313.81;;;18.49;100.00
26043;BME280;13818;52.156;5.382;2022-10-16T12:15:00;101298.94;;;18.17;100.00
26043;BME280;13818;52.156;5.382;2022-10-16T12:17:34;101307.31;;;18.51;100.00
26043;BME280;13818;52.156;5.382;2022-10-16T12:20:20;101306.44;;;18.64;100.00
26043;BME280;13818;52.156;5.382;2022-10-16T12:22:49;101295.59;;;18.77;100.00
26043;BME280;13818;52.156;5.382;2022-10-16T12:25:23;101297.38;;;18.89;100.00
26043;BME280;13818;52.156;5.382;2022-10-16T12:27:55;101310.97;;;19.00;100.00
26043;BME280;13818;52.156;5.382;2022-10-16T12:30:25;101319.72;;;19.04;100.00
26043;BME280;13818;52.156;5.382;2022-10-16T12:32:57;101316.06;;;19.05;99.86
26043;BME280;13818;52.156;5.382;2022-10-16T12:35:26;101322.44;;;19.04;97.84
26043;BME280;13818;52.156;5.382;2022-10-16T12:37:54;101313.75;;;19.12;95.94
26043;BME280;13818;52.156;5.382;2022-10-16T12:40:28;101323.00;;;18.83;98.00
26043;BME280;13818;52.156;5.382;2022-10-16T12:42:56;101322.75;;;18.99;94.85
26043;BME280;13818;52.156;5.382;2022-10-16T12:45:28;101319.28;;;18.97;95.45
26043;BME280;13818;52.156;5.382;2022-10-16T12:47:57;101317.59;;;18.96;94.37
26043;BME280;13818;52.156;5.382;2022-10-16T12:50:27;101315.06;;;18.69;97.01
26043;BME280;13818;52.156;5.382;2022-10-16T12:52:54;101320.03;;;18.62;98.56